Portada
METAR-TAF:

METAR-TAF

Aeroports :

Londres Southend, Anglaterra

latitud: 51-34N, longitud: 000-42E, altitud: 15 m

Observació

L'informe es va fer fa 29 minuts, a les 16:20 UTC
Vent 9 kt del Sud-Oest
Temperatura 8°C
Humitat 81%
Pressió 1012 hPa
Visibilitat 10 km o més
Núvols disperses a una alçada de 3200 ft

METAR: EGMC 071620Z 22009KT 9999 SCT032 08/05 Q1012

Hora: 16:49 (16:49 UTC)

Pronòstic

L'informe es va fer fa 2 hores i 49 minuts, a les 14:00 UTC
Pronòstic vàlid del 07 a les 15 UTC al 07 a les 24 UTC
Vent 12 kt del Sud-Oest
Visibilitat 10 km o més
Núvols disperses a una alçada de 3500 ft
Evolucionant progressivament
l' 07 a les 20 UTC al 07 a les 22 UTC
Vent 20 kt del Sud-Oest amb ràfegues de 30 kt
Cel ennuvolat a una alçada de 1400 ft

TAF: EGMC 071400Z 0715/0724 22012KT 9999 SCT035 BECMG 0720/0722 23020G30KT BKN014

Observacions i pronòstics meteorològics de més de 4000 aeroports (METAR i TAF).

Les estacions disponibles són els punts grocs i vermells al mapa.

Posi el ratolí al punt desitjat per veure el nom de l'estació.

Feu clic per veure les observacions i els pronòstics meteorològics.

Per canviar el mapa: feu clic els botons verds amb una creu de color negre per apropar; al botó verd amb un guió per allunyar la imatge; o en les fletxes verdes per a mapes adjacents.


METAR-TAF: